sensor_id;sensor_type;location;lat;lon;timestamp;pressure;altitude;pressure_sealevel;temperature;humidity
36284;BME280;56085;48.910;9.478;2023-01-28T00:01:04;98777.78;;;-0.26;81.19
36284;BME280;56085;48.910;9.478;2023-01-28T00:03:29;98760.66;;;-0.27;80.57
36284;BME280;56085;48.910;9.478;2023-01-28T00:06:00;98760.38;;;-0.25;81.12
36284;BME280;56085;48.910;9.478;2023-01-28T00:08:25;98764.44;;;-0.23;81.35
36284;BME280;56085;48.910;9.478;2023-01-28T00:10:51;98765.53;;;-0.24;81.00
36284;BME280;56085;48.910;9.478;2023-01-28T00:13:16;98759.56;;;-0.26;81.23
36284;BME280;56085;48.910;9.478;2023-01-28T00:15:41;98762.28;;;-0.26;81.31
36284;BME280;56085;48.910;9.478;2023-01-28T00:18:06;98760.66;;;-0.22;81.19
36284;BME280;56085;48.910;9.478;2023-01-28T00:20:31;98758.72;;;-0.21;80.85
36284;BME280;56085;48.910;9.478;2023-01-28T00:22:56;98763.59;;;-0.18;81.43
36284;BME280;56085;48.910;9.478;2023-01-28T00:25:21;98766.59;;;-0.20;81.35
36284;BME280;56085;48.910;9.478;2023-01-28T00:27:48;98763.09;;;-0.20;81.05
36284;BME280;56085;48.910;9.478;2023-01-28T00:30:13;98763.38;;;-0.22;81.17
36284;BME280;56085;48.910;9.478;2023-01-28T00:32:38;98761.72;;;-0.23;80.76
36284;BME280;56085;48.910;9.478;2023-01-28T00:35:04;98765.81;;;-0.25;81.32
36284;BME280;56085;48.910;9.478;2023-01-28T00:37:29;98754.38;;;-0.22;80.81
36284;BME280;56085;48.910;9.478;2023-01-28T00:39:55;98756.53;;;-0.19;81.32
36284;BME280;56085;48.910;9.478;2023-01-28T00:42:20;98749.22;;;-0.19;81.37
36284;BME280;56085;48.910;9.478;2023-01-28T00:44:45;98753.00;;;-0.20;80.77
36284;BME280;56085;48.910;9.478;2023-01-28T00:47:11;98744.56;;;-0.18;81.38
36284;BME280;56085;48.910;9.478;2023-01-28T00:49:36;98742.41;;;-0.21;81.53
36284;BME280;56085;48.910;9.478;2023-01-28T00:52:01;98748.66;;;-0.21;81.12
36284;BME280;56085;48.910;9.478;2023-01-28T00:54:26;98755.72;;;-0.20;81.01
36284;BME280;56085;48.910;9.478;2023-01-28T00:56:52;98758.72;;;-0.21;81.43
36284;BME280;56085;48.910;9.478;2023-01-28T00:59:20;98755.72;;;-0.20;81.36
36284;BME280;56085;48.910;9.478;2023-01-28T01:01:45;98749.72;;;-0.16;81.23
36284;BME280;56085;48.910;9.478;2023-01-28T01:04:10;98748.38;;;-0.14;81.15
36284;BME280;56085;48.910;9.478;2023-01-28T01:06:37;98745.94;;;-0.15;81.45
36284;BME280;56085;48.910;9.478;2023-01-28T01:09:03;98744.00;;;-0.15;81.39
36284;BME280;56085;48.910;9.478;2023-01-28T01:11:29;98757.59;;;-0.15;81.42
36284;BME280;56085;48.910;9.478;2023-01-28T01:13:55;98756.00;;;-0.16;81.73
36284;BME280;56085;48.910;9.478;2023-01-28T01:16:21;98758.44;;;-0.14;81.33
36284;BME280;56085;48.910;9.478;2023-01-28T01:18:47;98759.25;;;-0.14;81.65
36284;BME280;56085;48.910;9.478;2023-01-28T01:21:15;98757.59;;;-0.15;81.39
36284;BME280;56085;48.910;9.478;2023-01-28T01:23:41;98757.88;;;-0.16;81.61
36284;BME280;56085;48.910;9.478;2023-01-28T01:26:07;98760.31;;;-0.15;81.66
36284;BME280;56085;48.910;9.478;2023-01-28T01:28:32;98753.53;;;-0.12;81.76
36284;BME280;56085;48.910;9.478;2023-01-28T01:30:58;98761.16;;;-0.14;81.20
36284;BME280;56085;48.910;9.478;2023-01-28T01:33:24;98760.59;;;-0.16;81.47
36284;BME280;56085;48.910;9.478;2023-01-28T01:35:52;98758.72;;;-0.16;81.58
36284;BME280;56085;48.910;9.478;2023-01-28T01:38:18;98759.25;;;-0.14;81.51
36284;BME280;56085;48.910;9.478;2023-01-28T01:40:44;98763.59;;;-0.18;82.03
36284;BME280;56085;48.910;9.478;2023-01-28T01:43:16;98758.44;;;-0.14;81.80
36284;BME280;56085;48.910;9.478;2023-01-28T01:45:41;98759.25;;;-0.14;82.18
36284;BME280;56085;48.910;9.478;2023-01-28T01:50:52;98768.47;;;-0.15;82.17
36284;BME280;56085;48.910;9.478;2023-01-28T01:53:19;98767.16;;;-0.17;82.25
36284;BME280;56085;48.910;9.478;2023-01-28T01:55:47;98771.75;;;-0.13;81.94
36284;BME280;56085;48.910;9.478;2023-01-28T01:58:14;98770.13;;;-0.14;82.15
36284;BME280;56085;48.910;9.478;2023-01-28T02:00:41;98775.56;;;-0.14;82.22
36284;BME280;56085;48.910;9.478;2023-01-28T02:03:07;98766.31;;;-0.13;81.90
36284;BME280;56085;48.910;9.478;2023-01-28T02:05:33;98779.34;;;-0.10;82.37
36284;BME280;56085;48.910;9.478;2023-01-28T02:07:59;98769.31;;;-0.14;82.20
36284;BME280;56085;48.910;9.478;2023-01-28T02:10:42;98775.78;;;-0.10;82.28
36284;BME280;56085;48.910;9.478;2023-01-28T02:13:08;98776.34;;;-0.13;82.45
36284;BME280;56085;48.910;9.478;2023-01-28T02:15:33;98781.53;;;-0.17;82.05
36284;BME280;56085;48.910;9.478;2023-01-28T02:17:59;98773.63;;;-0.13;82.05
36284;BME280;56085;48.910;9.478;2023-01-28T02:23:15;98783.69;;;-0.09;82.59
36284;BME280;56085;48.910;9.478;2023-01-28T02:30:47;98781.78;;;-0.08;82.11
36284;BME280;56085;48.910;9.478;2023-01-28T02:33:22;98780.44;;;-0.11;82.40
36284;BME280;56085;48.910;9.478;2023-01-28T02:35:52;98778.78;;;-0.12;82.31
36284;BME280;56085;48.910;9.478;2023-01-28T02:38:19;98778.25;;;-0.09;82.20
36284;BME280;56085;48.910;9.478;2023-01-28T02:40:49;98772.81;;;-0.09;82.59
36284;BME280;56085;48.910;9.478;2023-01-28T02:43:34;98774.97;;;-0.06;82.40
36284;BME280;56085;48.910;9.478;2023-01-28T02:46:01;98783.69;;;-0.09;82.15
36284;BME280;56085;48.910;9.478;2023-01-28T02:48:46;98781.75;;;-0.03;82.60
36284;BME280;56085;48.910;9.478;2023-01-28T02:51:18;98780.94;;;-0.04;82.74
36284;BME280;56085;48.910;9.478;2023-01-28T02:53:50;98783.13;;;-0.06;82.48
36284;BME280;56085;48.910;9.478;2023-01-28T02:56:19;98790.72;;;-0.03;82.61
36284;BME280;56085;48.910;9.478;2023-01-28T03:04:33;98799.72;;;-0.07;83.28
36284;BME280;56085;48.910;9.478;2023-01-28T03:07:02;98793.19;;;-0.06;83.21
36284;BME280;56085;48.910;9.478;2023-01-28T03:09:29;98806.25;;;-0.08;83.57
36284;BME280;56085;48.910;9.478;2023-01-28T03:11:55;98800.00;;;-0.09;83.29
36284;BME280;56085;48.910;9.478;2023-01-28T03:14:39;98799.16;;;-0.04;83.51
36284;BME280;56085;48.910;9.478;2023-01-28T03:17:29;98793.44;;;-0.08;83.84
36284;BME280;56085;48.910;9.478;2023-01-28T03:20:15;98788.84;;;-0.12;84.06
36284;BME280;56085;48.910;9.478;2023-01-28T03:23:00;98788.34;;;-0.14;83.84
36284;BME280;56085;48.910;9.478;2023-01-28T03:25:45;98787.22;;;-0.13;83.85
36284;BME280;56085;48.910;9.478;2023-01-28T03:28:31;98789.66;;;-0.12;84.53
36284;BME280;56085;48.910;9.478;2023-01-28T03:31:16;98795.66;;;-0.15;84.82
36284;BME280;56085;48.910;9.478;2023-01-28T03:34:01;98794.34;;;-0.17;84.87
36284;BME280;56085;48.910;9.478;2023-01-28T03:36:46;98799.22;;;-0.20;84.61
36284;BME280;56085;48.910;9.478;2023-01-28T03:39:16;98797.31;;;-0.19;85.36
36284;BME280;56085;48.910;9.478;2023-01-28T03:41:41;98802.22;;;-0.21;85.27
36284;BME280;56085;48.910;9.478;2023-01-28T03:44:07;98806.00;;;-0.22;85.57
36284;BME280;56085;48.910;9.478;2023-01-28T03:46:50;98812.56;;;-0.23;85.80
36284;BME280;56085;48.910;9.478;2023-01-28T03:49:16;98815.81;;;-0.21;85.81
36284;BME280;56085;48.910;9.478;2023-01-28T03:51:41;98817.72;;;-0.27;86.27
36284;BME280;56085;48.910;9.478;2023-01-28T03:54:06;98811.47;;;-0.27;86.41
36284;BME280;56085;48.910;9.478;2023-01-28T03:56:32;98824.00;;;-0.31;86.51
36284;BME280;56085;48.910;9.478;2023-01-28T03:59:01;98808.50;;;-0.31;86.93
36284;BME280;56085;48.910;9.478;2023-01-28T04:01:26;98810.94;;;-0.29;87.04
36284;BME280;56085;48.910;9.478;2023-01-28T04:03:51;98809.31;;;-0.30;87.07
36284;BME280;56085;48.910;9.478;2023-01-28T04:06:17;98811.22;;;-0.31;87.37
36284;BME280;56085;48.910;9.478;2023-01-28T04:08:42;98810.97;;;-0.34;87.44
36284;BME280;56085;48.910;9.478;2023-01-28T04:11:12;98810.97;;;-0.34;87.19
36284;BME280;56085;48.910;9.478;2023-01-28T04:13:40;98804.16;;;-0.37;88.03
36284;BME280;56085;48.910;9.478;2023-01-28T04:16:06;98813.41;;;-0.33;88.05
36284;BME280;56085;48.910;9.478;2023-01-28T04:18:31;98815.84;;;-0.31;88.32
36284;BME280;56085;48.910;9.478;2023-01-28T04:20:56;98819.06;;;-0.29;88.23
36284;BME280;56085;48.910;9.478;2023-01-28T04:23:21;98828.88;;;-0.28;87.99
36284;BME280;56085;48.910;9.478;2023-01-28T04:25:48;98819.63;;;-0.27;88.40
36284;BME280;56085;48.910;9.478;2023-01-28T04:28:14;98831.31;;;-0.27;88.53
36284;BME280;56085;48.910;9.478;2023-01-28T04:30:39;98825.34;;;-0.34;88.74
36284;BME280;56085;48.910;9.478;2023-01-28T04:33:04;98834.34;;;-0.33;88.36
36284;BME280;56085;48.910;9.478;2023-01-28T04:35:29;98831.34;;;-0.37;88.74
36284;BME280;56085;48.910;9.478;2023-01-28T04:37:54;98842.22;;;-0.32;89.04
36284;BME280;56085;48.910;9.478;2023-01-28T04:40:19;98838.38;;;-0.31;88.89
36284;BME280;56085;48.910;9.478;2023-01-28T04:42:51;98842.19;;;-0.27;88.80
36284;BME280;56085;48.910;9.478;2023-01-28T04:45:17;98850.06;;;-0.25;89.36
36284;BME280;56085;48.910;9.478;2023-01-28T04:47:42;98846.81;;;-0.27;89.06
36284;BME280;56085;48.910;9.478;2023-01-28T04:50:07;98850.88;;;-0.30;89.22
36284;BME280;56085;48.910;9.478;2023-01-28T04:52:32;98844.91;;;-0.27;89.39
36284;BME280;56085;48.910;9.478;2023-01-28T04:54:57;98845.72;;;-0.31;89.89
36284;BME280;56085;48.910;9.478;2023-01-28T04:57:25;98846.53;;;-0.31;90.04
36284;BME280;56085;48.910;9.478;2023-01-28T04:59:50;98846.81;;;-0.27;89.67
36284;BME280;56085;48.910;9.478;2023-01-28T05:02:15;98851.16;;;-0.26;89.55
36284;BME280;56085;48.910;9.478;2023-01-28T05:04:40;98856.34;;;-0.40;90.07
36284;BME280;56085;48.910;9.478;2023-01-28T05:07:05;98851.72;;;-0.34;89.92
36284;BME280;56085;48.910;9.478;2023-01-28T05:09:30;98849.00;;;-0.34;90.04
36284;BME280;56085;48.910;9.478;2023-01-28T05:11:56;98843.28;;;-0.33;89.83
36284;BME280;56085;48.910;9.478;2023-01-28T05:14:21;98847.09;;;-0.34;90.19
36284;BME280;56085;48.910;9.478;2023-01-28T05:16:46;98847.91;;;-0.33;90.26
36284;BME280;56085;48.910;9.478;2023-01-28T05:19:11;98858.78;;;-0.39;90.56
36284;BME280;56085;48.910;9.478;2023-01-28T05:21:36;98854.72;;;-0.36;90.23
36284;BME280;56085;48.910;9.478;2023-01-28T05:24:02;98852.00;;;-0.36;90.13
36284;BME280;56085;48.910;9.478;2023-01-28T05:26:27;98844.66;;;-0.36;90.27
36284;BME280;56085;48.910;9.478;2023-01-28T05:28:52;98849.00;;;-0.34;90.21
36284;BME280;56085;48.910;9.478;2023-01-28T05:31:17;98843.84;;;-0.36;90.66
36284;BME280;56085;48.910;9.478;2023-01-28T05:33:42;98849.28;;;-0.36;90.59
36284;BME280;56085;48.910;9.478;2023-01-28T05:36:07;98849.84;;;-0.39;90.78
36284;BME280;56085;48.910;9.478;2023-01-28T05:38:33;98847.41;;;-0.41;90.95
36284;BME280;56085;48.910;9.478;2023-01-28T05:40:58;98850.66;;;-0.44;90.33
36284;BME280;56085;48.910;9.478;2023-01-28T05:43:23;98844.69;;;-0.41;90.61
36284;BME280;56085;48.910;9.478;2023-01-28T05:45:48;98847.91;;;-0.39;90.40
36284;BME280;56085;48.910;9.478;2023-01-28T05:48:13;98854.44;;;-0.40;90.33
36284;BME280;56085;48.910;9.478;2023-01-28T05:50:40;98854.19;;;-0.43;90.97
36284;BME280;56085;48.910;9.478;2023-01-28T05:53:05;98843.84;;;-0.41;91.12
36284;BME280;56085;48.910;9.478;2023-01-28T05:55:31;98854.72;;;-0.36;91.04
36284;BME280;56085;48.910;9.478;2023-01-28T05:57:56;98849.56;;;-0.38;91.19
36284;BME280;56085;48.910;9.478;2023-01-28T06:00:22;98845.19;;;-0.39;90.74
36284;BME280;56085;48.910;9.478;2023-01-28T06:02:47;98851.44;;;-0.33;90.54
36284;BME280;56085;48.910;9.478;2023-01-28T06:05:12;98856.59;;;-0.31;91.28
36284;BME280;56085;48.910;9.478;2023-01-28T06:07:37;98861.22;;;-0.32;91.20
36284;BME280;56085;48.910;9.478;2023-01-28T06:10:02;98869.38;;;-0.37;91.31
36284;BME280;56085;48.910;9.478;2023-01-28T06:12:28;98878.34;;;-0.37;90.91
36284;BME280;56085;48.910;9.478;2023-01-28T06:14:53;98883.53;;;-0.35;91.27
36284;BME280;56085;48.910;9.478;2023-01-28T06:17:18;98878.63;;;-0.33;91.20
36284;BME280;56085;48.910;9.478;2023-01-28T06:19:43;98883.53;;;-0.35;91.00
36284;BME280;56085;48.910;9.478;2023-01-28T06:22:09;98881.59;;;-0.29;91.39
36284;BME280;56085;48.910;9.478;2023-01-28T06:24:34;98893.28;;;-0.29;91.21
36284;BME280;56085;48.910;9.478;2023-01-28T06:26:59;98897.38;;;-0.26;91.02
36284;BME280;56085;48.910;9.478;2023-01-28T06:29:24;98896.81;;;-0.23;91.38
36284;BME280;56085;48.910;9.478;2023-01-28T06:31:50;98907.69;;;-0.23;91.13
36284;BME280;56085;48.910;9.478;2023-01-28T06:34:15;98907.41;;;-0.22;91.04
36284;BME280;56085;48.910;9.478;2023-01-28T06:36:40;98903.84;;;-0.22;91.18
36284;BME280;56085;48.910;9.478;2023-01-28T06:39:05;98901.41;;;-0.24;91.21
36284;BME280;56085;48.910;9.478;2023-01-28T06:41:30;98909.00;;;-0.21;91.04
36284;BME280;56085;48.910;9.478;2023-01-28T06:43:56;98914.72;;;-0.17;90.87
36284;BME280;56085;48.910;9.478;2023-01-28T06:46:21;98916.66;;;-0.17;91.18
36284;BME280;56085;48.910;9.478;2023-01-28T06:48:46;98918.00;;;-0.20;91.06
36284;BME280;56085;48.910;9.478;2023-01-28T06:51:11;98923.97;;;-0.18;90.78
36284;BME280;56085;48.910;9.478;2023-01-28T06:53:37;98932.13;;;-0.18;90.83
36284;BME280;56085;48.910;9.478;2023-01-28T06:56:02;98921.25;;;-0.18;91.17
36284;BME280;56085;48.910;9.478;2023-01-28T06:58:27;98921.00;;;-0.22;90.75
36284;BME280;56085;48.910;9.478;2023-01-28T07:00:52;98932.66;;;-0.21;90.67
36284;BME280;56085;48.910;9.478;2023-01-28T07:03:18;98928.31;;;-0.17;90.74
36284;BME280;56085;48.910;9.478;2023-01-28T07:05:43;98926.97;;;-0.14;90.86
36284;BME280;56085;48.910;9.478;2023-01-28T07:08:08;98923.13;;;-0.13;90.86
36284;BME280;56085;48.910;9.478;2023-01-28T07:10:33;98938.88;;;-0.10;90.59
36284;BME280;56085;48.910;9.478;2023-01-28T07:12:58;98938.09;;;-0.11;90.70
36284;BME280;56085;48.910;9.478;2023-01-28T07:15:24;98934.53;;;-0.06;90.43
36284;BME280;56085;48.910;9.478;2023-01-28T07:17:49;98940.53;;;-0.04;90.92
36284;BME280;56085;48.910;9.478;2023-01-28T07:20:14;98938.34;;;-0.02;91.04
36284;BME280;56085;48.910;9.478;2023-01-28T07:22:40;98942.97;;;-0.03;91.00
36284;BME280;56085;48.910;9.478;2023-01-28T07:25:06;98933.47;;;0.00;90.85
36284;BME280;56085;48.910;9.478;2023-01-28T07:27:31;98941.34;;;0.02;90.86
36284;BME280;56085;48.910;9.478;2023-01-28T07:29:56;98949.22;;;0.03;90.48
36284;BME280;56085;48.910;9.478;2023-01-28T07:32:22;98952.47;;;0.05;90.64
36284;BME280;56085;48.910;9.478;2023-01-28T07:34:47;98954.09;;;0.06;90.97
36284;BME280;56085;48.910;9.478;2023-01-28T07:37:12;98956.25;;;0.04;90.69
36284;BME280;56085;48.910;9.478;2023-01-28T07:39:38;98951.09;;;0.03;90.33
36284;BME280;56085;48.910;9.478;2023-01-28T07:42:03;98951.94;;;-0.02;90.25
36284;BME280;56085;48.910;9.478;2023-01-28T07:44:29;98957.91;;;0.05;90.38
36284;BME280;56085;48.910;9.478;2023-01-28T07:46:54;98957.34;;;0.08;90.81
36284;BME280;56085;48.910;9.478;2023-01-28T07:49:19;98952.19;;;0.12;90.33
36284;BME280;56085;48.910;9.478;2023-01-28T07:51:44;98944.81;;;0.12;90.84
36284;BME280;56085;48.910;9.478;2023-01-28T07:54:11;98958.16;;;0.14;90.56
36284;BME280;56085;48.910;9.478;2023-01-28T07:56:36;98963.59;;;0.19;90.65
36284;BME280;56085;48.910;9.478;2023-01-28T07:59:01;98960.59;;;0.21;90.24
36284;BME280;56085;48.910;9.478;2023-01-28T08:01:27;98958.69;;;0.21;90.47
36284;BME280;56085;48.910;9.478;2023-01-28T08:03:52;98973.59;;;0.29;90.50
36284;BME280;56085;48.910;9.478;2023-01-28T08:06:17;98971.16;;;0.32;90.60
36284;BME280;56085;48.910;9.478;2023-01-28T08:08:43;98970.88;;;0.34;90.41
36284;BME280;56085;48.910;9.478;2023-01-28T08:11:08;98973.31;;;0.36;90.05
36284;BME280;56085;48.910;9.478;2023-01-28T08:13:34;98978.75;;;0.36;90.00
36284;BME280;56085;48.910;9.478;2023-01-28T08:16:00;98978.72;;;0.41;90.07
36284;BME280;56085;48.910;9.478;2023-01-28T08:18:25;98984.16;;;0.46;90.19
36284;BME280;56085;48.910;9.478;2023-01-28T08:20:53;98979.53;;;0.51;90.19
36284;BME280;56085;48.910;9.478;2023-01-28T08:23:19;98978.69;;;0.51;90.35
36284;BME280;56085;48.910;9.478;2023-01-28T08:25:45;98983.59;;;0.54;90.31
36284;BME280;56085;48.910;9.478;2023-01-28T08:28:10;98981.94;;;0.58;90.31
36284;BME280;56085;48.910;9.478;2023-01-28T08:30:36;98982.72;;;0.64;90.00
36284;BME280;56085;48.910;9.478;2023-01-28T08:33:03;98985.44;;;0.69;89.76
36284;BME280;56085;48.910;9.478;2023-01-28T08:35:28;98987.59;;;0.72;89.98
36284;BME280;56085;48.910;9.478;2023-01-28T08:37:54;98992.47;;;0.75;89.84
36284;BME280;56085;48.910;9.478;2023-01-28T08:40:19;98993.28;;;0.76;90.07
36284;BME280;56085;48.910;9.478;2023-01-28T08:42:51;98992.19;;;0.77;90.15
36284;BME280;56085;48.910;9.478;2023-01-28T08:45:17;98981.56;;;0.80;89.75
36284;BME280;56085;48.910;9.478;2023-01-28T08:47:49;98984.56;;;0.79;89.70
36284;BME280;56085;48.910;9.478;2023-01-28T08:50:15;98985.41;;;0.79;89.59
36284;BME280;56085;48.910;9.478;2023-01-28T08:52:40;98985.41;;;0.79;89.67
36284;BME280;56085;48.910;9.478;2023-01-28T08:55:08;98992.19;;;0.82;89.45
36284;BME280;56085;48.910;9.478;2023-01-28T08:57:33;98991.06;;;0.83;89.58
36284;BME280;56085;48.910;9.478;2023-01-28T08:59:58;98987.03;;;0.75;89.33
36284;BME280;56085;48.910;9.478;2023-01-28T09:02:23;98990.28;;;0.82;89.12
36284;BME280;56085;48.910;9.478;2023-01-28T09:04:49;98998.41;;;0.87;88.84
36284;BME280;56085;48.910;9.478;2023-01-28T09:07:14;98993.75;;;0.93;88.99
36284;BME280;56085;48.910;9.478;2023-01-28T09:09:39;99004.06;;;1.01;89.00
36284;BME280;56085;48.910;9.478;2023-01-28T09:12:04;98995.38;;;0.99;88.61
36284;BME280;56085;48.910;9.478;2023-01-28T09:14:30;98996.13;;;1.10;88.62
36284;BME280;56085;48.910;9.478;2023-01-28T09:16:55;98996.06;;;1.15;88.42
36284;BME280;56085;48.910;9.478;2023-01-28T09:19:20;98999.06;;;1.14;88.30
36284;BME280;56085;48.910;9.478;2023-01-28T09:21:45;98996.06;;;1.15;88.30
36284;BME280;56085;48.910;9.478;2023-01-28T09:24:10;99014.88;;;1.17;88.23
36284;BME280;56085;48.910;9.478;2023-01-28T09:26:36;99012.13;;;1.22;88.13
36284;BME280;56085;48.910;9.478;2023-01-28T09:29:02;99017.56;;;1.22;87.72
36284;BME280;56085;48.910;9.478;2023-01-28T09:31:27;99018.94;;;1.19;87.65
36284;BME280;56085;48.910;9.478;2023-01-28T09:33:52;99018.69;;;1.16;87.67
36284;BME280;56085;48.910;9.478;2023-01-28T09:36:20;99023.56;;;1.19;87.27
36284;BME280;56085;48.910;9.478;2023-01-28T09:38:46;99026.31;;;1.19;87.47
36284;BME280;56085;48.910;9.478;2023-01-28T09:44:05;99029.84;;;1.19;87.02
36284;BME280;56085;48.910;9.478;2023-01-28T09:46:32;99035.28;;;1.19;86.79
36284;BME280;56085;48.910;9.478;2023-01-28T09:48:58;99035.53;;;1.23;86.69
36284;BME280;56085;48.910;9.478;2023-01-28T09:57:06;99039.06;;;1.29;86.65
36284;BME280;56085;48.910;9.478;2023-01-28T09:59:36;99049.13;;;1.28;86.46
36284;BME280;56085;48.910;9.478;2023-01-28T10:02:03;99044.47;;;1.34;86.13
36284;BME280;56085;48.910;9.478;2023-01-28T10:04:48;99047.75;;;1.36;86.16
36284;BME280;56085;48.910;9.478;2023-01-28T10:12:52;99035.69;;;1.42;85.58
36284;BME280;56085;48.910;9.478;2023-01-28T10:18:07;99027.84;;;1.35;85.43
36284;BME280;56085;48.910;9.478;2023-01-28T10:20:35;99019.06;;;1.44;85.42
36284;BME280;56085;48.910;9.478;2023-01-28T10:23:07;99020.94;;;1.48;85.43
36284;BME280;56085;48.910;9.478;2023-01-28T10:25:36;99015.19;;;1.50;84.99
36284;BME280;56085;48.910;9.478;2023-01-28T10:28:04;99023.59;;;1.59;85.00
36284;BME280;56085;48.910;9.478;2023-01-28T10:30:35;99029.03;;;1.59;84.86
36284;BME280;56085;48.910;9.478;2023-01-28T10:33:05;99018.63;;;1.66;85.20
36284;BME280;56085;48.910;9.478;2023-01-28T10:35:36;99021.38;;;1.61;84.88
36284;BME280;56085;48.910;9.478;2023-01-28T10:38:03;99014.28;;;1.65;85.12
36284;BME280;56085;48.910;9.478;2023-01-28T10:40:31;99025.94;;;1.70;84.90
36284;BME280;56085;48.910;9.478;2023-01-28T10:42:57;99013.97;;;1.66;84.76
36284;BME280;56085;48.910;9.478;2023-01-28T10:45:23;99021.88;;;1.68;84.57
36284;BME280;56085;48.910;9.478;2023-01-28T10:50:22;99016.13;;;1.69;84.24
36284;BME280;56085;48.910;9.478;2023-01-28T10:53:05;99021.03;;;1.72;84.08
36284;BME280;56085;48.910;9.478;2023-01-28T10:58:18;99021.34;;;1.71;84.24
36284;BME280;56085;48.910;9.478;2023-01-28T11:00:44;99023.78;;;1.72;84.63
36284;BME280;56085;48.910;9.478;2023-01-28T11:03:19;99022.66;;;1.73;84.06
36284;BME280;56085;48.910;9.478;2023-01-28T11:05:51;99024.59;;;1.68;84.18
36284;BME280;56085;48.910;9.478;2023-01-28T11:08:17;99029.75;;;1.69;84.13
36284;BME280;56085;48.910;9.478;2023-01-28T11:10:43;99034.50;;;1.59;84.10
36284;BME280;56085;48.910;9.478;2023-01-28T11:13:16;99025.50;;;1.58;83.86
36284;BME280;56085;48.910;9.478;2023-01-28T11:15:46;99027.69;;;1.56;83.69
36284;BME280;56085;48.910;9.478;2023-01-28T11:18:16;99024.69;;;1.57;84.03
36284;BME280;56085;48.910;9.478;2023-01-28T11:20:42;99032.84;;;1.57;83.77
36284;BME280;56085;48.910;9.478;2023-01-28T11:23:26;99025.47;;;1.63;83.84
36284;BME280;56085;48.910;9.478;2023-01-28T11:25:59;99035.34;;;1.54;83.45
36284;BME280;56085;48.910;9.478;2023-01-28T11:28:26;99025.25;;;1.54;83.69
36284;BME280;56085;48.910;9.478;2023-01-28T11:30:52;99034.25;;;1.55;83.50
36284;BME280;56085;48.910;9.478;2023-01-28T11:33:20;99032.63;;;1.54;83.76
36284;BME280;56085;48.910;9.478;2023-01-28T11:36:06;99026.38;;;1.53;83.63
36284;BME280;56085;48.910;9.478;2023-01-28T11:38:32;99028.25;;;1.58;83.42
36284;BME280;56085;48.910;9.478;2023-01-28T11:40:58;99028.53;;;1.56;83.46
36284;BME280;56085;48.910;9.478;2023-01-28T11:43:26;99028.53;;;1.56;83.54
36284;BME280;56085;48.910;9.478;2023-01-28T11:45:57;99037.47;;;1.62;83.75
36284;BME280;56085;48.910;9.478;2023-01-28T11:48:36;99028.19;;;1.63;83.28
36284;BME280;56085;48.910;9.478;2023-01-28T11:51:15;99037.44;;;1.67;83.46
36284;BME280;56085;48.910;9.478;2023-01-28T11:53:47;99031.69;;;1.69;83.49
36284;BME280;56085;48.910;9.478;2023-01-28T12:01:46;99027.91;;;1.65;83.53
36284;BME280;56085;48.910;9.478;2023-01-28T12:04:17;99023.84;;;1.62;83.41
36284;BME280;56085;48.910;9.478;2023-01-28T12:09:19;99031.41;;;1.70;83.75
36284;BME280;56085;48.910;9.478;2023-01-28T12:12:37;99026.53;;;1.67;83.74
36284;BME280;56085;48.910;9.478;2023-01-28T12:22:15;99032.19;;;1.76;83.85
36284;BME280;56085;48.910;9.478;2023-01-28T12:24:56;99035.22;;;1.69;83.88
36284;BME280;56085;48.910;9.478;2023-01-28T12:37:58;99029.63;;;1.50;84.06
36284;BME280;56085;48.910;9.478;2023-01-28T12:45:40;99028.63;;;1.41;84.96
36284;BME280;56085;48.910;9.478;2023-01-28T12:48:19;99021.25;;;1.42;84.74
36284;BME280;56085;48.910;9.478;2023-01-28T12:50:47;99019.88;;;1.44;85.12
36284;BME280;56085;48.910;9.478;2023-01-28T12:55:47;99017.47;;;1.37;85.40
36284;BME280;56085;48.910;9.478;2023-01-28T12:58:17;99016.91;;;1.41;85.26
36284;BME280;56085;48.910;9.478;2023-01-28T13:00:47;99021.25;;;1.42;85.39
36284;BME280;56085;48.910;9.478;2023-01-28T13:05:39;99017.44;;;1.43;85.05
36284;BME280;56085;48.910;9.478;2023-01-28T13:08:10;99017.97;;;1.45;85.53
36284;BME280;56085;48.910;9.478;2023-01-28T13:10:39;99017.97;;;1.45;85.16
36284;BME280;56085;48.910;9.478;2023-01-28T13:13:05;99016.84;;;1.46;85.52
36284;BME280;56085;48.910;9.478;2023-01-28T13:15:31;99023.44;;;1.45;85.54
36284;BME280;56085;48.910;9.478;2023-01-28T13:18:01;99023.38;;;1.50;85.44
36284;BME280;56085;48.910;9.478;2023-01-28T13:20:46;99017.69;;;1.46;85.06
36284;BME280;56085;48.910;9.478;2023-01-28T13:23:22;99020.63;;;1.55;85.16
36284;BME280;56085;48.910;9.478;2023-01-28T13:25:52;99011.03;;;1.63;85.17
36284;BME280;56085;48.910;9.478;2023-01-28T13:28:36;99017.28;;;1.63;85.01
36284;BME280;56085;48.910;9.478;2023-01-28T13:31:05;99017.53;;;1.67;85.18
36284;BME280;56085;48.910;9.478;2023-01-28T13:33:32;99023.78;;;1.67;84.67
36284;BME280;56085;48.910;9.478;2023-01-28T13:35:58;99022.91;;;1.77;84.61
36284;BME280;56085;48.910;9.478;2023-01-28T13:38:25;99026.69;;;1.81;84.57
36284;BME280;56085;48.910;9.478;2023-01-28T13:40:58;99028.06;;;1.79;84.37
36284;BME280;56085;48.910;9.478;2023-01-28T13:45:59;99022.47;;;1.94;84.25
36284;BME280;56085;48.910;9.478;2023-01-28T13:48:30;99030.16;;;1.92;84.10
36284;BME280;56085;48.910;9.478;2023-01-28T13:50:56;99033.38;;;1.94;84.08
36284;BME280;56085;48.910;9.478;2023-01-28T13:53:36;99031.22;;;1.96;84.08
36284;BME280;56085;48.910;9.478;2023-01-28T13:56:06;99030.16;;;1.92;83.44
36284;BME280;56085;48.910;9.478;2023-01-28T13:58:48;99037.53;;;1.91;83.69
36284;BME280;56085;48.910;9.478;2023-01-28T14:06:31;99039.69;;;1.89;83.36
36284;BME280;56085;48.910;9.478;2023-01-28T14:11:45;99041.66;;;1.84;83.09
36284;BME280;56085;48.910;9.478;2023-01-28T14:16:49;99044.66;;;1.87;83.15
36284;BME280;56085;48.910;9.478;2023-01-28T14:19:18;99050.91;;;1.88;82.82
36284;BME280;56085;48.910;9.478;2023-01-28T14:21:45;99044.88;;;1.91;82.76
36284;BME280;56085;48.910;9.478;2023-01-28T14:24:15;99049.81;;;1.89;82.65
36284;BME280;56085;48.910;9.478;2023-01-28T14:26:56;99054.72;;;1.87;82.38
36284;BME280;56085;48.910;9.478;2023-01-28T14:29:36;99062.06;;;1.91;82.09
36284;BME280;56085;48.910;9.478;2023-01-28T14:32:07;99061.81;;;1.88;82.08
36284;BME280;56085;48.910;9.478;2023-01-28T14:34:35;99070.03;;;1.83;82.40
36284;BME280;56085;48.910;9.478;2023-01-28T14:37:08;99067.31;;;1.83;81.96